sensor_id;sensor_type;location;lat;lon;timestamp;pressure;altitude;pressure_sealevel;temperature;humidity
47080;BME280;33067;49.296;14.470;2023-05-19T00:00:56;97658.79;;;13.93;38.16
47080;BME280;33067;49.296;14.470;2023-05-19T00:03:21;97656.71;;;14.19;37.68
47080;BME280;33067;49.296;14.470;2023-05-19T00:05:47;97657.58;;;14.06;38.49
47080;BME280;33067;49.296;14.470;2023-05-19T00:08:14;97658.67;;;14.08;39.03
47080;BME280;33067;49.296;14.470;2023-05-19T00:10:38;97661.49;;;14.44;38.63
47080;BME280;33067;49.296;14.470;2023-05-19T00:13:03;97661.60;;;14.05;37.88
47080;BME280;33067;49.296;14.470;2023-05-19T00:15:29;97661.00;;;14.43;38.76
47080;BME280;33067;49.296;14.470;2023-05-19T00:17:54;97660.05;;;14.18;39.61
47080;BME280;33067;49.296;14.470;2023-05-19T00:20:19;97658.02;;;14.07;38.03
47080;BME280;33067;49.296;14.470;2023-05-19T00:22:44;97658.60;;;14.15;37.85
47080;BME280;33067;49.296;14.470;2023-05-19T00:25:10;97658.79;;;14.34;39.44
47080;BME280;33067;49.296;14.470;2023-05-19T00:27:35;97658.94;;;14.17;39.01
47080;BME280;33067;49.296;14.470;2023-05-19T00:30:00;97655.17;;;14.38;37.32
47080;BME280;33067;49.296;14.470;2023-05-19T00:32:25;97652.21;;;13.96;37.86
47080;BME280;33067;49.296;14.470;2023-05-19T00:34:51;97651.54;;;14.41;38.33
47080;BME280;33067;49.296;14.470;2023-05-19T00:37:16;97646.45;;;14.21;37.62
47080;BME280;33067;49.296;14.470;2023-05-19T00:39:42;97644.36;;;13.86;38.71
47080;BME280;33067;49.296;14.470;2023-05-19T00:42:08;97642.50;;;13.80;40.35
47080;BME280;33067;49.296;14.470;2023-05-19T00:44:33;97638.89;;;14.07;39.23
47080;BME280;33067;49.296;14.470;2023-05-19T00:46:59;97636.53;;;14.46;38.19
47080;BME280;33067;49.296;14.470;2023-05-19T00:49:24;97634.25;;;14.10;38.79
47080;BME280;33067;49.296;14.470;2023-05-19T00:51:50;97631.95;;;14.09;40.12
47080;BME280;33067;49.296;14.470;2023-05-19T00:54:15;97629.12;;;14.07;40.68
47080;BME280;33067;49.296;14.470;2023-05-19T00:56:41;97629.87;;;13.73;39.99
47080;BME280;33067;49.296;14.470;2023-05-19T00:59:07;97630.00;;;14.23;39.41
47080;BME280;33067;49.296;14.470;2023-05-19T01:01:31;97631.83;;;14.08;38.70
47080;BME280;33067;49.296;14.470;2023-05-19T01:03:57;97627.97;;;13.98;38.61
47080;BME280;33067;49.296;14.470;2023-05-19T01:06:22;97625.35;;;13.86;39.40
47080;BME280;33067;49.296;14.470;2023-05-19T01:08:48;97625.43;;;13.91;38.81
47080;BME280;33067;49.296;14.470;2023-05-19T01:11:13;97624.87;;;14.22;38.64
47080;BME280;33067;49.296;14.470;2023-05-19T01:13:38;97622.31;;;14.03;39.38
47080;BME280;33067;49.296;14.470;2023-05-19T01:16:10;97622.19;;;14.18;39.56
47080;BME280;33067;49.296;14.470;2023-05-19T01:18:38;97620.66;;;14.43;39.83
47080;BME280;33067;49.296;14.470;2023-05-19T01:21:03;97618.54;;;14.39;39.79
47080;BME280;33067;49.296;14.470;2023-05-19T01:23:28;97617.36;;;14.40;39.77
47080;BME280;33067;49.296;14.470;2023-05-19T01:30:39;97614.82;;;14.24;40.24
47080;BME280;33067;49.296;14.470;2023-05-19T01:33:05;97615.42;;;13.85;39.32
47080;BME280;33067;49.296;14.470;2023-05-19T01:35:28;97615.02;;;13.99;38.53
47080;BME280;33067;49.296;14.470;2023-05-19T01:37:55;97610.42;;;14.16;38.42
47080;BME280;33067;49.296;14.470;2023-05-19T01:40:20;97610.14;;;13.73;38.40
47080;BME280;33067;49.296;14.470;2023-05-19T01:42:45;97612.39;;;13.74;38.47
47080;BME280;33067;49.296;14.470;2023-05-19T01:45:11;97610.83;;;13.99;38.22
47080;BME280;33067;49.296;14.470;2023-05-19T01:47:40;97615.94;;;13.69;38.68
47080;BME280;33067;49.296;14.470;2023-05-19T01:50:02;97616.93;;;13.27;39.10
47080;BME280;33067;49.296;14.470;2023-05-19T01:52:27;97617.17;;;13.10;39.48
47080;BME280;33067;49.296;14.470;2023-05-19T01:54:53;97614.46;;;12.89;39.73
47080;BME280;33067;49.296;14.470;2023-05-19T01:57:23;97614.70;;;12.80;40.01
47080;BME280;33067;49.296;14.470;2023-05-19T01:59:51;97613.67;;;13.10;39.62
47080;BME280;33067;49.296;14.470;2023-05-19T02:02:18;97613.33;;;13.15;39.65
47080;BME280;33067;49.296;14.470;2023-05-19T02:04:41;97615.90;;;13.32;39.62
47080;BME280;33067;49.296;14.470;2023-05-19T02:07:04;97614.40;;;13.36;39.43
47080;BME280;33067;49.296;14.470;2023-05-19T02:09:36;97613.58;;;12.94;40.16
47080;BME280;33067;49.296;14.470;2023-05-19T02:13:03;97615.93;;;13.27;39.79
47080;BME280;33067;49.296;14.470;2023-05-19T02:15:32;97615.14;;;13.38;39.56
47080;BME280;33067;49.296;14.470;2023-05-19T02:17:50;97614.31;;;13.39;39.08
47080;BME280;33067;49.296;14.470;2023-05-19T02:20:16;97614.08;;;13.41;39.44
47080;BME280;33067;49.296;14.470;2023-05-19T02:22:43;97614.12;;;13.32;39.81
47080;BME280;33067;49.296;14.470;2023-05-19T02:25:07;97615.72;;;13.36;39.64
47080;BME280;33067;49.296;14.470;2023-05-19T02:27:31;97614.47;;;13.35;39.68
47080;BME280;33067;49.296;14.470;2023-05-19T02:29:57;97608.52;;;13.18;39.57
47080;BME280;33067;49.296;14.470;2023-05-19T02:32:22;97603.65;;;13.32;39.37
47080;BME280;33067;49.296;14.470;2023-05-19T02:34:47;97602.36;;;13.29;39.45
47080;BME280;33067;49.296;14.470;2023-05-19T02:37:13;97603.21;;;13.12;39.25
47080;BME280;33067;49.296;14.470;2023-05-19T02:39:37;97603.57;;;13.11;40.00
47080;BME280;33067;49.296;14.470;2023-05-19T02:42:03;97602.57;;;13.21;40.40
47080;BME280;33067;49.296;14.470;2023-05-19T02:44:28;97599.18;;;13.04;40.22
47080;BME280;33067;49.296;14.470;2023-05-19T02:46:53;97595.56;;;13.22;40.47
47080;BME280;33067;49.296;14.470;2023-05-19T02:49:18;97594.62;;;13.29;40.38
47080;BME280;33067;49.296;14.470;2023-05-19T02:51:44;97594.61;;;13.26;40.28
47080;BME280;33067;49.296;14.470;2023-05-19T02:54:10;97594.69;;;12.97;40.29
47080;BME280;33067;49.296;14.470;2023-05-19T02:56:34;97594.36;;;13.46;39.98
47080;BME280;33067;49.296;14.470;2023-05-19T02:58:59;97586.44;;;13.20;40.09
47080;BME280;33067;49.296;14.470;2023-05-19T03:01:25;97582.91;;;12.83;40.15
47080;BME280;33067;49.296;14.470;2023-05-19T03:03:50;97578.36;;;13.17;39.89
47080;BME280;33067;49.296;14.470;2023-05-19T03:06:16;97575.73;;;12.81;40.11
47080;BME280;33067;49.296;14.470;2023-05-19T03:08:41;97578.53;;;13.08;40.30
47080;BME280;33067;49.296;14.470;2023-05-19T03:11:06;97576.50;;;12.91;40.28
47080;BME280;33067;49.296;14.470;2023-05-19T03:13:32;97579.76;;;13.04;40.78
47080;BME280;33067;49.296;14.470;2023-05-19T03:15:58;97578.56;;;13.55;40.35
47080;BME280;33067;49.296;14.470;2023-05-19T03:18:24;97575.87;;;13.24;40.28
47080;BME280;33067;49.296;14.470;2023-05-19T03:20:49;97576.45;;;13.25;40.85
47080;BME280;33067;49.296;14.470;2023-05-19T03:23:15;97573.59;;;13.03;40.84
47080;BME280;33067;49.296;14.470;2023-05-19T03:25:41;97573.37;;;13.13;40.53
47080;BME280;33067;49.296;14.470;2023-05-19T03:28:06;97576.33;;;12.73;41.03
47080;BME280;33067;49.296;14.470;2023-05-19T03:30:32;97578.14;;;13.26;40.83
47080;BME280;33067;49.296;14.470;2023-05-19T03:32:57;97579.17;;;13.20;40.63
47080;BME280;33067;49.296;14.470;2023-05-19T03:35:22;97582.84;;;12.96;40.35
47080;BME280;33067;49.296;14.470;2023-05-19T03:37:47;97582.52;;;13.06;40.58
47080;BME280;33067;49.296;14.470;2023-05-19T03:40:13;97585.33;;;13.11;40.45
47080;BME280;33067;49.296;14.470;2023-05-19T03:42:39;97587.28;;;13.10;40.37
47080;BME280;33067;49.296;14.470;2023-05-19T03:45:04;97586.18;;;13.27;40.97
47080;BME280;33067;49.296;14.470;2023-05-19T03:47:28;97584.29;;;13.41;41.48
47080;BME280;33067;49.296;14.470;2023-05-19T03:49:53;97583.84;;;13.68;41.87
47080;BME280;33067;49.296;14.470;2023-05-19T03:52:19;97580.91;;;13.64;41.33
47080;BME280;33067;49.296;14.470;2023-05-19T03:54:44;97584.25;;;13.46;41.19
47080;BME280;33067;49.296;14.470;2023-05-19T03:57:09;97584.59;;;13.52;40.58
47080;BME280;33067;49.296;14.470;2023-05-19T03:59:35;97584.63;;;14.00;40.30
47080;BME280;33067;49.296;14.470;2023-05-19T04:02:00;97584.90;;;14.10;39.93
47080;BME280;33067;49.296;14.470;2023-05-19T04:04:25;97583.34;;;14.15;39.14
47080;BME280;33067;49.296;14.470;2023-05-19T04:06:51;97587.12;;;14.26;39.27
47080;BME280;33067;49.296;14.470;2023-05-19T04:09:16;97584.09;;;14.23;38.69
47080;BME280;33067;49.296;14.470;2023-05-19T04:11:42;97580.94;;;14.37;38.51
47080;BME280;33067;49.296;14.470;2023-05-19T04:14:07;97582.87;;;14.14;38.47
47080;BME280;33067;49.296;14.470;2023-05-19T04:16:34;97578.81;;;14.32;38.25
47080;BME280;33067;49.296;14.470;2023-05-19T04:18:58;97582.22;;;14.25;38.32
47080;BME280;33067;49.296;14.470;2023-05-19T04:21:24;97584.85;;;13.87;38.78
47080;BME280;33067;49.296;14.470;2023-05-19T04:23:49;97584.25;;;14.14;38.71
47080;BME280;33067;49.296;14.470;2023-05-19T04:26:14;97585.31;;;14.23;38.50
47080;BME280;33067;49.296;14.470;2023-05-19T04:28:39;97581.93;;;14.36;38.37
47080;BME280;33067;49.296;14.470;2023-05-19T04:31:05;97580.11;;;14.38;38.74
47080;BME280;33067;49.296;14.470;2023-05-19T04:33:30;97581.87;;;14.78;37.57
47080;BME280;33067;49.296;14.470;2023-05-19T04:35:55;97585.44;;;14.36;37.75
47080;BME280;33067;49.296;14.470;2023-05-19T04:38:20;97583.55;;;14.52;37.34
47080;BME280;33067;49.296;14.470;2023-05-19T04:40:47;97587.42;;;14.55;37.53
47080;BME280;33067;49.296;14.470;2023-05-19T04:43:12;97589.65;;;14.22;37.53
47080;BME280;33067;49.296;14.470;2023-05-19T04:45:36;97590.67;;;14.25;36.93
47080;BME280;33067;49.296;14.470;2023-05-19T04:48:03;97591.14;;;14.73;36.52
47080;BME280;33067;49.296;14.470;2023-05-19T04:50:27;97592.27;;;14.63;37.03
47080;BME280;33067;49.296;14.470;2023-05-19T04:52:52;97598.13;;;14.13;37.26
47080;BME280;33067;49.296;14.470;2023-05-19T04:55:17;97591.23;;;14.46;37.21
47080;BME280;33067;49.296;14.470;2023-05-19T04:57:42;97593.44;;;14.22;37.05
47080;BME280;33067;49.296;14.470;2023-05-19T05:00:09;97589.11;;;14.27;37.10
47080;BME280;33067;49.296;14.470;2023-05-19T05:02:34;97595.06;;;14.45;36.68
47080;BME280;33067;49.296;14.470;2023-05-19T05:04:59;97594.60;;;13.90;36.90
47080;BME280;33067;49.296;14.470;2023-05-19T05:07:24;97592.69;;;13.87;36.66
47080;BME280;33067;49.296;14.470;2023-05-19T05:09:50;97588.51;;;14.36;37.09
47080;BME280;33067;49.296;14.470;2023-05-19T05:12:16;97586.08;;;13.85;37.00
47080;BME280;33067;49.296;14.470;2023-05-19T05:14:41;97581.44;;;14.19;37.42
47080;BME280;33067;49.296;14.470;2023-05-19T05:17:06;97579.07;;;14.19;37.05
47080;BME280;33067;49.296;14.470;2023-05-19T05:19:31;97579.16;;;14.20;37.42
47080;BME280;33067;49.296;14.470;2023-05-19T05:21:56;97573.36;;;14.18;37.20
47080;BME280;33067;49.296;14.470;2023-05-19T05:24:22;97569.79;;;14.17;36.74
47080;BME280;33067;49.296;14.470;2023-05-19T05:26:47;97568.46;;;14.12;37.16
47080;BME280;33067;49.296;14.470;2023-05-19T05:29:12;97569.46;;;14.74;36.54
47080;BME280;33067;49.296;14.470;2023-05-19T05:31:38;97569.89;;;14.19;37.11
47080;BME280;33067;49.296;14.470;2023-05-19T05:34:03;97573.21;;;14.20;37.25
47080;BME280;33067;49.296;14.470;2023-05-19T05:36:29;97573.16;;;14.54;37.00
47080;BME280;33067;49.296;14.470;2023-05-19T05:38:54;97575.73;;;14.48;36.61
47080;BME280;33067;49.296;14.470;2023-05-19T05:41:19;97580.38;;;13.95;37.21
47080;BME280;33067;49.296;14.470;2023-05-19T05:43:45;97574.66;;;14.16;36.85
47080;BME280;33067;49.296;14.470;2023-05-19T05:46:10;97579.79;;;14.28;37.09
47080;BME280;33067;49.296;14.470;2023-05-19T05:48:36;97575.53;;;14.18;37.11
47080;BME280;33067;49.296;14.470;2023-05-19T05:51:01;97573.90;;;13.94;36.91
47080;BME280;33067;49.296;14.470;2023-05-19T05:53:29;97573.47;;;14.84;36.35
47080;BME280;33067;49.296;14.470;2023-05-19T05:55:53;97574.26;;;14.67;36.75
47080;BME280;33067;49.296;14.470;2023-05-19T05:58:16;97574.29;;;14.11;36.99
47080;BME280;33067;49.296;14.470;2023-05-19T06:00:42;97576.21;;;14.10;37.52
47080;BME280;33067;49.296;14.470;2023-05-19T06:03:07;97575.76;;;14.59;37.45
47080;BME280;33067;49.296;14.470;2023-05-19T06:05:32;97578.47;;;14.22;37.56
47080;BME280;33067;49.296;14.470;2023-05-19T06:07:57;97576.89;;;14.43;36.69
47080;BME280;33067;49.296;14.470;2023-05-19T06:10:23;97587.86;;;14.06;37.06
47080;BME280;33067;49.296;14.470;2023-05-19T06:12:48;97579.90;;;14.16;36.85
47080;BME280;33067;49.296;14.470;2023-05-19T06:15:14;97582.23;;;14.85;36.87
47080;BME280;33067;49.296;14.470;2023-05-19T06:17:39;97584.36;;;14.56;36.93
47080;BME280;33067;49.296;14.470;2023-05-19T06:20:06;97588.91;;;13.85;37.45
47080;BME280;33067;49.296;14.470;2023-05-19T06:22:30;97591.56;;;13.48;37.59
47080;BME280;33067;49.296;14.470;2023-05-19T06:24:56;97592.75;;;13.78;37.65
47080;BME280;33067;49.296;14.470;2023-05-19T06:27:22;97593.66;;;13.64;37.54
47080;BME280;33067;49.296;14.470;2023-05-19T06:29:48;97593.72;;;13.31;38.16
47080;BME280;33067;49.296;14.470;2023-05-19T06:32:11;97596.40;;;13.73;37.84
47080;BME280;33067;49.296;14.470;2023-05-19T06:34:37;97597.94;;;13.43;38.79
47080;BME280;33067;49.296;14.470;2023-05-19T06:37:03;97594.31;;;14.21;37.59
47080;BME280;33067;49.296;14.470;2023-05-19T06:39:28;97593.15;;;14.09;37.93
47080;BME280;33067;49.296;14.470;2023-05-19T06:41:54;97597.09;;;14.40;37.19
47080;BME280;33067;49.296;14.470;2023-05-19T06:44:19;97607.33;;;14.32;37.01
47080;BME280;33067;49.296;14.470;2023-05-19T06:46:44;97612.47;;;13.81;37.73
47080;BME280;33067;49.296;14.470;2023-05-19T06:49:09;97610.11;;;13.99;38.02
47080;BME280;33067;49.296;14.470;2023-05-19T06:51:35;97606.22;;;14.59;37.52
47080;BME280;33067;49.296;14.470;2023-05-19T06:54:00;97608.75;;;13.84;38.16
47080;BME280;33067;49.296;14.470;2023-05-19T06:56:25;97612.11;;;14.29;37.56
47080;BME280;33067;49.296;14.470;2023-05-19T06:58:51;97610.09;;;13.81;38.02
47080;BME280;33067;49.296;14.470;2023-05-19T07:01:16;97609.77;;;13.68;38.34
47080;BME280;33067;49.296;14.470;2023-05-19T07:03:43;97606.81;;;14.02;38.54
47080;BME280;33067;49.296;14.470;2023-05-19T07:06:08;97608.49;;;13.69;39.02
47080;BME280;33067;49.296;14.470;2023-05-19T07:08:31;97605.34;;;13.71;39.16
47080;BME280;33067;49.296;14.470;2023-05-19T07:10:57;97604.75;;;13.68;39.04
47080;BME280;33067;49.296;14.470;2023-05-19T07:13:22;97604.66;;;14.17;38.42
47080;BME280;33067;49.296;14.470;2023-05-19T07:15:47;97598.77;;;14.56;37.82
47080;BME280;33067;49.296;14.470;2023-05-19T07:18:13;97603.23;;;14.10;37.97
47080;BME280;33067;49.296;14.470;2023-05-19T07:20:38;97606.35;;;14.49;37.69
47080;BME280;33067;49.296;14.470;2023-05-19T07:23:05;97605.20;;;14.58;37.33
47080;BME280;33067;49.296;14.470;2023-05-19T07:25:28;97610.51;;;14.10;37.93
47080;BME280;33067;49.296;14.470;2023-05-19T07:27:54;97607.87;;;15.02;37.62
47080;BME280;33067;49.296;14.470;2023-05-19T07:30:19;97606.56;;;15.13;37.27
47080;BME280;33067;49.296;14.470;2023-05-19T07:32:44;97606.86;;;14.78;37.02
47080;BME280;33067;49.296;14.470;2023-05-19T07:35:10;97604.64;;;14.97;37.10
47080;BME280;33067;49.296;14.470;2023-05-19T07:37:36;97602.92;;;15.47;36.92
47080;BME280;33067;49.296;14.470;2023-05-19T07:40:00;97598.75;;;15.45;36.96
47080;BME280;33067;49.296;14.470;2023-05-19T07:42:25;97596.06;;;15.56;37.13
47080;BME280;33067;49.296;14.470;2023-05-19T07:44:50;97591.61;;;15.30;37.24
47080;BME280;33067;49.296;14.470;2023-05-19T07:47:16;97594.90;;;15.89;36.28
47080;BME280;33067;49.296;14.470;2023-05-19T07:49:41;97594.50;;;15.77;36.34
47080;BME280;33067;49.296;14.470;2023-05-19T07:52:06;97595.19;;;15.19;36.47
47080;BME280;33067;49.296;14.470;2023-05-19T07:54:31;97593.48;;;14.40;37.36
47080;BME280;33067;49.296;14.470;2023-05-19T07:56:57;97586.37;;;15.17;37.22
47080;BME280;33067;49.296;14.470;2023-05-19T07:59:22;97583.64;;;15.11;37.19
47080;BME280;33067;49.296;14.470;2023-05-19T08:01:48;97582.74;;;15.18;37.03
47080;BME280;33067;49.296;14.470;2023-05-19T08:04:13;97587.73;;;15.30;37.02
47080;BME280;33067;49.296;14.470;2023-05-19T08:06:38;97582.80;;;15.12;36.93
47080;BME280;33067;49.296;14.470;2023-05-19T08:09:04;97581.53;;;15.32;37.07
47080;BME280;33067;49.296;14.470;2023-05-19T08:11:30;97580.49;;;15.69;36.75
47080;BME280;33067;49.296;14.470;2023-05-19T08:13:54;97581.51;;;15.11;37.35
47080;BME280;33067;49.296;14.470;2023-05-19T08:16:20;97584.46;;;15.37;37.63
47080;BME280;33067;49.296;14.470;2023-05-19T08:18:45;97580.34;;;15.18;37.66
47080;BME280;33067;49.296;14.470;2023-05-19T08:21:10;97579.76;;;15.86;37.00
47080;BME280;33067;49.296;14.470;2023-05-19T08:23:36;97587.07;;;15.56;36.51
47080;BME280;33067;49.296;14.470;2023-05-19T08:26:01;97580.74;;;16.00;36.43
47080;BME280;33067;49.296;14.470;2023-05-19T08:28:26;97582.73;;;15.54;36.32
47080;BME280;33067;49.296;14.470;2023-05-19T08:30:52;97587.25;;;15.27;36.83
47080;BME280;33067;49.296;14.470;2023-05-19T08:33:16;97578.66;;;15.53;36.86
47080;BME280;33067;49.296;14.470;2023-05-19T08:35:43;97573.62;;;15.49;37.15
47080;BME280;33067;49.296;14.470;2023-05-19T08:38:07;97564.39;;;15.45;37.00
47080;BME280;33067;49.296;14.470;2023-05-19T08:40:32;97561.65;;;15.85;36.91
47080;BME280;33067;49.296;14.470;2023-05-19T08:42:57;97558.23;;;16.35;35.80
47080;BME280;33067;49.296;14.470;2023-05-19T08:45:23;97555.43;;;16.62;35.85
47080;BME280;33067;49.296;14.470;2023-05-19T08:47:50;97551.45;;;16.78;35.55
47080;BME280;33067;49.296;14.470;2023-05-19T08:50:18;97549.48;;;16.39;36.46
47080;BME280;33067;49.296;14.470;2023-05-19T08:52:45;97557.46;;;15.66;36.98
47080;BME280;33067;49.296;14.470;2023-05-19T08:55:08;97549.58;;;15.18;38.19
47080;BME280;33067;49.296;14.470;2023-05-19T08:57:29;97538.63;;;16.57;36.46
47080;BME280;33067;49.296;14.470;2023-05-19T08:59:55;97528.94;;;16.23;36.08
47080;BME280;33067;49.296;14.470;2023-05-19T09:02:20;97532.82;;;17.24;35.47
47080;BME280;33067;49.296;14.470;2023-05-19T09:04:44;97536.38;;;16.11;36.12
47080;BME280;33067;49.296;14.470;2023-05-19T09:07:12;97530.27;;;16.72;35.12
47080;BME280;33067;49.296;14.470;2023-05-19T09:09:35;97541.87;;;17.47;34.96
47080;BME280;33067;49.296;14.470;2023-05-19T09:12:00;97527.19;;;17.83;34.32
47080;BME280;33067;49.296;14.470;2023-05-19T09:14:25;97530.00;;;17.97;34.04
47080;BME280;33067;49.296;14.470;2023-05-19T09:16:50;97534.85;;;18.00;33.15
47080;BME280;33067;49.296;14.470;2023-05-19T09:19:18;97528.89;;;18.06;33.36
47080;BME280;33067;49.296;14.470;2023-05-19T09:21:41;97535.03;;;17.00;34.84
47080;BME280;33067;49.296;14.470;2023-05-19T09:24:08;97526.83;;;17.95;34.17
47080;BME280;33067;49.296;14.470;2023-05-19T09:26:36;97525.74;;;17.85;33.81
47080;BME280;33067;49.296;14.470;2023-05-19T09:28:57;97526.33;;;18.11;34.25
47080;BME280;33067;49.296;14.470;2023-05-19T09:31:21;97521.00;;;18.61;33.74
47080;BME280;33067;49.296;14.470;2023-05-19T09:33:46;97521.91;;;18.56;33.81
47080;BME280;33067;49.296;14.470;2023-05-19T09:36:12;97519.88;;;18.45;34.08
47080;BME280;33067;49.296;14.470;2023-05-19T09:38:37;97516.64;;;18.03;33.50
47080;BME280;33067;49.296;14.470;2023-05-19T09:41:05;97515.43;;;19.28;33.42
47080;BME280;33067;49.296;14.470;2023-05-19T09:43:27;97511.68;;;19.19;32.83
47080;BME280;33067;49.296;14.470;2023-05-19T09:45:54;97509.32;;;18.85;33.38
47080;BME280;33067;49.296;14.470;2023-05-19T09:48:17;97514.07;;;18.15;34.42
47080;BME280;33067;49.296;14.470;2023-05-19T09:50:43;97511.41;;;17.50;34.99
47080;BME280;33067;49.296;14.470;2023-05-19T09:53:07;97514.83;;;17.53;34.70
47080;BME280;33067;49.296;14.470;2023-05-19T09:55:33;97506.00;;;18.17;34.40
47080;BME280;33067;49.296;14.470;2023-05-19T09:57:59;97503.10;;;17.58;35.26
47080;BME280;33067;49.296;14.470;2023-05-19T10:00:23;97501.23;;;17.86;34.84
47080;BME280;33067;49.296;14.470;2023-05-19T10:02:48;97496.06;;;18.47;34.51
47080;BME280;33067;49.296;14.470;2023-05-19T10:05:15;97497.25;;;18.00;34.30
47080;BME280;33067;49.296;14.470;2023-05-19T10:07:39;97493.28;;;18.22;33.97
47080;BME280;33067;49.296;14.470;2023-05-19T10:10:04;97495.69;;;18.74;34.37
47080;BME280;33067;49.296;14.470;2023-05-19T10:12:29;97502.27;;;17.73;34.51
47080;BME280;33067;49.296;14.470;2023-05-19T10:14:54;97494.47;;;17.68;35.40
47080;BME280;33067;49.296;14.470;2023-05-19T10:17:19;97490.40;;;18.00;34.83
47080;BME280;33067;49.296;14.470;2023-05-19T10:19:44;97483.92;;;18.57;33.97
47080;BME280;33067;49.296;14.470;2023-05-19T10:22:09;97487.89;;;17.91;34.91
47080;BME280;33067;49.296;14.470;2023-05-19T10:24:34;97489.52;;;18.13;35.44
47080;BME280;33067;49.296;14.470;2023-05-19T10:27:02;97493.77;;;18.04;35.10
47080;BME280;33067;49.296;14.470;2023-05-19T10:29:29;97490.60;;;17.66;35.19
47080;BME280;33067;49.296;14.470;2023-05-19T10:31:51;97492.77;;;17.82;35.25
47080;BME280;33067;49.296;14.470;2023-05-19T10:34:26;97493.80;;;17.79;35.20
47080;BME280;33067;49.296;14.470;2023-05-19T10:36:46;97492.36;;;17.56;35.76
47080;BME280;33067;49.296;14.470;2023-05-19T10:39:06;97489.01;;;18.00;35.14
47080;BME280;33067;49.296;14.470;2023-05-19T10:41:37;97484.47;;;18.11;35.52
47080;BME280;33067;49.296;14.470;2023-05-19T10:44:02;97486.31;;;18.99;34.57
47080;BME280;33067;49.296;14.470;2023-05-19T10:46:23;97484.74;;;18.54;34.86
47080;BME280;33067;49.296;14.470;2023-05-19T10:48:45;97485.93;;;18.01;34.74
47080;BME280;33067;49.296;14.470;2023-05-19T10:51:10;97484.94;;;18.24;34.86
47080;BME280;33067;49.296;14.470;2023-05-19T10:53:40;97479.93;;;18.76;34.07
47080;BME280;33067;49.296;14.470;2023-05-19T10:56:01;97478.18;;;17.65;35.37
47080;BME280;33067;49.296;14.470;2023-05-19T10:58:36;97485.92;;;17.89;35.70
47080;BME280;33067;49.296;14.470;2023-05-19T11:01:00;97495.39;;;17.10;37.49
47080;BME280;33067;49.296;14.470;2023-05-19T11:03:17;97487.90;;;16.48;38.05
47080;BME280;33067;49.296;14.470;2023-05-19T11:05:42;97479.38;;;17.41;37.22
47080;BME280;33067;49.296;14.470;2023-05-19T11:08:07;97487.59;;;16.99;37.21
47080;BME280;33067;49.296;14.470;2023-05-19T11:10:32;97478.82;;;17.78;37.23
47080;BME280;33067;49.296;14.470;2023-05-19T11:12:57;97472.97;;;17.84;36.47
47080;BME280;33067;49.296;14.470;2023-05-19T11:15:25;97478.99;;;17.39;37.40
47080;BME280;33067;49.296;14.470;2023-05-19T11:17:49;97485.62;;;17.04;37.76
47080;BME280;33067;49.296;14.470;2023-05-19T11:20:21;97472.67;;;18.03;37.14
47080;BME280;33067;49.296;14.470;2023-05-19T11:22:39;97467.47;;;17.98;36.06
47080;BME280;33067;49.296;14.470;2023-05-19T11:25:03;97476.11;;;17.81;36.73
47080;BME280;33067;49.296;14.470;2023-05-19T11:27:29;97478.61;;;18.23;36.60
47080;BME280;33067;49.296;14.470;2023-05-19T11:29:54;97479.95;;;16.60;38.23
47080;BME280;33067;49.296;14.470;2023-05-19T11:32:20;97479.38;;;16.03;39.17
47080;BME280;33067;49.296;14.470;2023-05-19T11:34:44;97477.69;;;16.75;38.64
47080;BME280;33067;49.296;14.470;2023-05-19T11:37:10;97472.73;;;16.57;39.12
47080;BME280;33067;49.296;14.470;2023-05-19T11:39:34;97476.98;;;17.03;38.16
47080;BME280;33067;49.296;14.470;2023-05-19T11:42:00;97468.32;;;16.96;38.32
47080;BME280;33067;49.296;14.470;2023-05-19T11:44:25;97472.83;;;16.91;38.61
47080;BME280;33067;49.296;14.470;2023-05-19T11:46:50;97472.94;;;18.00;38.14
47080;BME280;33067;49.296;14.470;2023-05-19T11:49:15;97480.54;;;17.30;38.14
47080;BME280;33067;49.296;14.470;2023-05-19T11:51:42;97472.95;;;16.89;38.34
47080;BME280;33067;49.296;14.470;2023-05-19T11:54:06;97468.81;;;17.36;37.94
47080;BME280;33067;49.296;14.470;2023-05-19T11:56:40;97468.93;;;17.67;37.69
47080;BME280;33067;49.296;14.470;2023-05-19T11:58:56;97469.60;;;17.90;37.64
47080;BME280;33067;49.296;14.470;2023-05-19T12:01:28;97468.03;;;17.42;37.15
47080;BME280;33067;49.296;14.470;2023-05-19T12:03:48;97465.27;;;17.19;38.69
47080;BME280;33067;49.296;14.470;2023-05-19T12:06:11;97467.83;;;16.82;38.28
47080;BME280;33067;49.296;14.470;2023-05-19T12:08:36;97465.95;;;17.13;38.46
47080;BME280;33067;49.296;14.470;2023-05-19T12:11:04;97459.95;;;17.69;37.52
47080;BME280;33067;49.296;14.470;2023-05-19T12:13:27;97461.99;;;18.22;37.04
47080;BME280;33067;49.296;14.470;2023-05-19T12:15:52;97463.23;;;17.68;37.94
47080;BME280;33067;49.296;14.470;2023-05-19T12:18:18;97459.51;;;18.34;37.80
47080;BME280;33067;49.296;14.470;2023-05-19T12:20:43;97468.63;;;17.53;37.65
47080;BME280;33067;49.296;14.470;2023-05-19T12:23:08;97460.83;;;17.25;38.00
47080;BME280;33067;49.296;14.470;2023-05-19T12:25:33;97464.21;;;16.81;38.64
47080;BME280;33067;49.296;14.470;2023-05-19T12:27:58;97461.16;;;17.08;38.64
47080;BME280;33067;49.296;14.470;2023-05-19T12:30:25;97454.01;;;17.38;38.24
47080;BME280;33067;49.296;14.470;2023-05-19T12:32:52;97464.21;;;17.41;38.93
47080;BME280;33067;49.296;14.470;2023-05-19T12:35:14;97456.29;;;17.37;38.69
47080;BME280;33067;49.296;14.470;2023-05-19T12:37:40;97459.45;;;16.59;38.79
47080;BME280;33067;49.296;14.470;2023-05-19T12:40:05;97461.75;;;16.98;38.75
47080;BME280;33067;49.296;14.470;2023-05-19T12:42:29;97455.80;;;17.33;38.71
47080;BME280;33067;49.296;14.470;2023-05-19T12:44:54;97452.19;;;17.04;39.07